Station: Yunta

  Atmospheric Gas Attenuation - ITU Rec 676-11   --------------- db/100km ---------------
Date Time Temp RH % AH g/m3 Dew Point Wind Direction Speed kph Gust kph Barometer mB Rainfall Since 9am 24GHz 47GHz 76GHz 122GHz 134GHz 241GHz
13 08:20 7.5 91 7.29 6.2 19 20 1013.1 0.2 17.1 25.6 37.5 98.3 88.4 302.6
13 08:10 7.4 91 7.24 6.1 13 15 1013.1 0.2 17.0 25.5 37.4 97.9 87.8 300.5
13 08:00 7.3 93 7.35 6.2 13 17 1026 0.2 17.2 26.2 38.4 100.6 90.4 309.5
13 07:50 7 93 7.21 5.9 13 17 1013.1 0.2 16.9 25.6 37.4 98.0 87.9 300.6
13 07:40 6.8 92 7.04 5.6 9 13 1013.1 0.2 16.6 25.3 36.8 96.4 85.7 293.2
13 07:30 6.8 92 7.04 5.6 7 9 1013.1 0.2 16.6 25.3 36.8 96.4 85.7 293.2
13 07:20 6.9 92 7.09 5.7 9 9 1013.1 0.2 16.7 25.4 37.0 96.8 86.3 295.3
13 07:10 6.9 92 7.09 5.7 7 7 1013.1 0.2 16.7 25.4 37.0 96.8 86.3 295.3
13 07:00 6.9 92 7.09 5.7 7 11 1025.8 0.2 16.7 25.9 37.5 98.1 87.3 298.4
13 06:50 7 92 7.13 5.8 9 11 1013.1 0.2 16.7 25.4 37.1 97.1 86.8 296.8
13 06:40 7.1 92 7.18 5.9 9 11 1013.1 0.2 16.8 25.5 37.2 97.6 87.3 298.8
13 06:30 7.2 93 7.3 6.1 13 20 1025.6 0.2 17.1 26.1 38.3 100.1 89.8 307.4
13 06:20 7.3 93 7.35 6.2 15 20 1013.1 0.2 17.2 25.7 37.9 99.2 89.4 306.2
13 06:10 7.3 93 7.35 6.2 13 15 1013.1 0.2 17.2 25.7 37.9 99.2 89.4 306.2
13 06:00 7.3 93 7.35 6.2 11 19 1025.1 0.2 17.2 26.2 38.4 100.5 90.4 309.3
13 05:50 7.3 93 7.35 6.2 15 17 1013.1 0.2 17.2 25.7 37.9 99.2 89.4 306.2
13 05:40 7.2 93 7.3 6.1 11 15 1013.1 0.2 17.1 25.7 37.7 98.8 88.9 304.2
13 05:30 7.2 93 7.3 6.1 13 17 1025 0.2 17.1 26.1 38.2 100.0 89.8 307.2
13 05:20 7.2 93 7.3 6.1 9 11 1013.1 0.2 17.1 25.7 37.7 98.8 88.9 304.2
13 05:10 7.1 93 7.26 6 9 11 1013.1 0.2 17.0 25.6 37.6 98.5 88.4 302.7
13 04:50 7.1 92 7.18 5.9 11 15 1013.1 0.2 16.8 25.5 37.2 97.6 87.3 298.8
13 04:40 7 92 7.13 5.8 9 9 1013.1 0.2 16.7 25.4 37.1 97.1 86.8 296.8
13 04:30 7 92 7.13 5.8 9 15 1024.2 0.2 16.7 25.9 37.6 98.3 87.6 299.5
13 04:20 7 92 7.13 5.8 7 9 1013.1 0.2 16.7 25.4 37.1 97.1 86.8 296.8
13 04:10 7 92 7.13 5.8 9 11 1013.1 0.2 16.7 25.4 37.1 97.1 86.8 296.8
13 04:00 7 92 7.13 5.8 7 9 1023.9 0.2 16.7 25.9 37.6 98.2 87.6 299.5
13 03:50 7 91 7.05 5.6 7 9 1013.1 0.2 16.6 25.3 36.8 96.3 85.7 293.0
13 03:40 7.1 91 7.1 5.7 11 13 1013.1 0.2 16.7 25.4 36.9 96.7 86.2 295.0
13 03:30 7.1 91 7.1 5.7 13 19 1023.6 0.2 16.7 25.8 37.4 97.8 87.0 297.6
13 03:20 7.3 91 7.19 5.9 17 20 1013.1 0.2 16.9 25.4 37.2 97.4 87.2 298.5
13 03:10 7.4 91 7.24 6 17 19 1013.1 0.2 17.0 25.5 37.4 97.9 87.8 300.5
13 03:00 7.5 91 7.29 6.1 22 32 1023.3 0.2 17.1 26.0 38.0 99.3 89.2 305.1
13 02:50 7.6 91 7.33 6.2 20 24 1013.1 0.2 17.1 25.6 37.6 98.6 88.8 304.1
13 02:40 7.6 90 7.25 6 22 24 1013.1 0.2 17.0 25.5 37.3 97.7 87.7 300.3
13 02:30 7.2 90 7.07 5.7 19 24 1023.7 0.2 16.6 25.7 37.2 97.3 86.5 295.8
13 02:20 7.3 89 7.04 5.7 19 20 1013.1 0.2 16.5 25.2 36.6 95.8 85.2 291.4
13 02:10 7.3 89 7.04 5.7 20 24 1013.1 0.2 16.5 25.2 36.6 95.8 85.2 291.4
13 02:00 7.4 90 7.16 5.9 19 26 1023.6 0.2 16.8 25.8 37.5 98.0 87.5 299.3
13 01:50 7.6 89 7.17 5.9 20 22 1013.1 0.2 16.8 25.3 37.0 96.8 86.6 296.4
13 01:40 7.7 89 7.22 6 20 24 1013.1 0.2 16.9 25.4 37.1 97.3 87.2 298.4
13 01:30 7.6 90 7.25 6.1 20 24 1023.6 0.2 17.0 25.9 37.8 98.8 88.5 302.9
13 01:20 7.5 89 7.13 5.8 19 20 1013.1 0.2 16.7 25.3 36.8 96.5 86.2 294.9
13 01:10 7.4 90 7.16 5.8 17 19 1013.1 0.2 16.8 25.4 37.0 97.0 86.7 296.7
13 01:00 7.5 89 7.13 5.8 19 26 1023.5 0.2 16.7 25.7 37.3 97.6 87.0 297.5
13 00:50 7.5 90 7.21 5.9 20 22 1013.1 0.2 16.9 25.4 37.2 97.4 87.3 298.7
13 00:40 7.5 89 7.13 5.8 20 24 1013.1 0.2 16.7 25.3 36.8 96.5 86.2 294.9
13 00:30 7.5 89 7.13 5.8 19 24 1023.6 0.2 16.7 25.7 37.3 97.6 87.0 297.5
13 00:20 7.2 89 6.99 5.6 15 17 1013.1 0.2 16.4 25.1 36.4 95.3 84.6 289.3
13 00:10 6.6 91 6.87 5.2 13 15 1013.1 0.2 16.2 25.1 36.2 94.8 83.6 285.8
13 00:00 6 91 6.61 4.6 9 13 1023.5 0.2 15.7 25.3 35.8 93.6 81.5 278.0
12 23:50 5.7 91 6.48 4.3 9 11 1013.1 0.2 15.4 24.7 35.0 91.5 79.3 270.4
12 23:40 5.3 91 6.31 3.9 9 9 1013.1 0.2 15.0 24.5 34.5 90.1 77.4 263.7
12 23:30 4.8 90 6.04 3.3 9 9 1023.3 0.2 14.5 24.6 34.0 88.7 74.9 254.7
12 23:20 4.6 90 5.96 3.1 9 9 1013.1 0.2 14.3 24.2 33.3 87.1 73.3 249.4
12 23:10 4.6 89 5.89 2.9 9 9 1013.1 0.2 14.2 24.0 33.0 86.3 72.4 246.1
12 23:00 5.1 89 6.09 3.4 9 11 1023.3 0.2 14.6 24.6 34.1 88.9 75.3 256.1
12 22:50 5.2 89 6.13 3.5 11 11 1013.1 0.2 14.7 24.3 33.8 88.3 75.0 255.5
12 22:40 5.3 89 6.17 3.6 9 11 1013.1 0.2 14.7 24.3 33.9 88.6 75.5 257.0
12 22:30 5.5 88 6.18 3.7 7 9 1023.3 0.2 14.8 24.7 34.3 89.4 76.1 259.1
12 22:20 5.7 87 6.2 3.8 6 7 1013.1 0.2 14.8 24.3 33.8 88.5 75.5 257.1
12 22:10 6.1 88 6.43 4.2 7 9 1013.1 0.2 15.3 24.5 34.6 90.5 78.2 266.7
12 22:00 6.2 88 6.48 4.4 11 13 1023.3 0.2 15.4 25.0 35.2 91.9 79.5 271.0
12 21:50 6.4 88 6.56 4.5 11 11 1013.1 0.2 15.5 24.7 35.0 91.6 79.6 271.8
12 21:40 6 87 6.32 4 9 9 1013.1 0.2 15.0 24.4 34.2 89.4 76.8 261.8
12 21:30 6.2 86 6.33 4 9 11 1023.1 0.2 15.0 24.7 34.6 90.3 77.4 263.8
12 21:20 6.6 85 6.42 4.2 7 7 1013.1 0.2 15.2 24.4 34.3 89.8 77.6 264.5
12 21:10 6.8 84 6.43 4.3 7 7 1013.1 0.2 15.2 24.3 34.3 89.7 77.5 264.3
12 21:00 7.5 83 6.65 4.8 11 15 1023 0.2 15.7 24.9 35.3 92.2 80.4 274.5
12 20:50 7.7 83 6.73 5 11 13 1013.1 0.2 15.8 24.6 35.1 91.9 80.6 275.3
12 20:40 8 82 6.78 5.1 13 13 1013.1 0.2 15.9 24.6 35.2 92.1 80.9 276.5
12 20:30 8.3 81 6.83 5.2 13 17 1022.7 0.2 16.0 24.9 35.7 93.2 82.0 280.1
12 20:20 8.3 81 6.83 5.2 13 13 1013.1 0.2 16.0 24.6 35.3 92.3 81.3 277.8
12 20:10 8.6 79 6.79 5.1 11 11 1013.1 0.2 15.9 24.4 35.0 91.5 80.4 274.9
12 20:00 8.9 79 6.92 5.5 11 13 1022.6 0.2 16.2 24.9 35.8 93.5 82.5 282.1
12 19:50 9.1 79 7.01 5.6 11 13 1013.1 0.2 16.4 24.6 35.6 93.3 82.8 283.3
12 19:40 9.1 79 7.01 5.6 7 7 1013.1 0.2 16.4 24.6 35.6 93.3 82.8 283.3
12 19:30 9.2 79 7.06 5.8 9 13 1022.4 0.2 16.5 25.0 36.2 94.6 84.1 287.5
12 19:20 9.4 79 7.15 5.9 11 13 1013.1 0.2 16.7 24.8 36.1 94.4 84.4 288.8
12 19:10 9.4 78 7.06 5.7 13 17 1013.1 0.2 16.5 24.6 35.7 93.5 83.2 284.6
12 19:00 9.4 78 7.06 5.8 15 22 1022.1 0.2 16.5 25.0 36.1 94.3 83.8 286.7
12 18:50 9.4 79 7.15 5.9 17 19 1013.1 0.2 16.7 24.8 36.1 94.4 84.4 288.8
12 18:40 9.2 78 6.97 5.5 15 17 1013.1 0.2 16.3 24.6 35.4 92.7 82.2 281.1
12 18:30 9.3 77 6.92 5.5 15 19 1021.8 0.2 16.2 24.8 35.6 92.9 82.0 280.5
12 18:20 9.1 77 6.83 5.4 15 17 1013.1 0.2 16.0 24.4 34.9 91.3 80.5 275.0
12 18:10 9.5 75 6.83 5.4 13 15 1013.1 0.2 16.0 24.2 34.7 90.9 80.0 273.6
12 18:00 9.7 75 6.92 5.5 15 19 1021.2 0.2 16.2 24.6 35.3 92.4 81.6 278.9
12 17:50 9.6 75 6.87 5.4 13 13 1013.1 0.2 16.1 24.3 34.8 91.2 80.5 275.1
12 17:40 9.9 74 6.91 5.5 13 15 1013.1 0.2 16.1 24.3 34.9 91.3 80.7 275.9
12 17:30 10.2 72 6.85 5.4 15 19 1020.5 0.2 16.0 24.4 34.8 91.0 80.1 273.8
12 17:20 10.3 71 6.8 5.4 15 17 1013.1 0.2 15.9 24.0 34.3 89.7 78.8 269.5
12 17:10 10.3 71 6.8 5.4 11 13 1013.1 0.2 15.9 24.0 34.3 89.7 78.8 269.5
12 17:00 10.3 71 6.8 5.3 15 22 1020.2 0.2 15.9 24.2 34.6 90.3 79.3 271.1
12 16:50 10.3 69 6.61 5 15 19 1013.1 0.2 15.5 23.7 33.5 87.7 76.4 260.9
12 16:40 10.4 69 6.65 5.1 17 20 1013.1 0.2 15.6 23.7 33.6 88.0 76.8 262.4
12 16:30 10.8 69 6.82 5.3 19 24 1020 0.2 15.9 24.1 34.4 90.0 79.1 270.3
12 16:20 11.1 71 7.15 6 20 24 1013.1 0.2 16.6 24.3 35.3 92.4 82.5 282.6
12 16:10 11 71 7.11 5.9 22 24 1013.1 0.2 16.5 24.3 35.2 92.1 82.1 281.1
12 16:00 10.7 71 6.98 5.7 22 28 1019.8 0.2 16.3 24.4 35.1 91.7 81.2 277.8
12 15:50 10.6 73 7.13 5.9 20 24 1013.1 0.2 16.6 24.4 35.4 92.8 82.8 283.5
12 15:40 10.4 76 7.33 6.3 17 20 1013.1 0.2 17.0 24.8 36.3 95.1 85.7 293.4

Last Refresh: 13-Jul-2020 08:27:06

Most of the information presented on this site is sourced from the Bureau of Meteorology.  Copyright in all material sourced from the Bureau of Meteorology resides with the Commonwealth of Australia.